Time;durP1;ratioP1;P1;durP2;ratioP2;P2;SDS_P1;SDS_P2;PMS_P1;PMS_P2;Temp;Humidity;BMP_temperature;BMP_pressure;BME280_temperature;BME280_humidity;BME280_pressure;Samples;Min_cycle;Max_cycle;Signal;HPM_P1;HPM_P2
2022/05/09 00:00:20;;;;;;;8.40;2.92;;;7.60;99.90;;;;;;5025107;28;20041;-76
2022/05/09 00:02:45;;;;;;;9.18;2.40;;;7.70;99.90;;;;;;5007087;28;20073;-76
2022/05/09 00:05:15;;;;;;;10.32;2.72;;;7.70;99.90;;;;;;5005380;28;20076;-75
2022/05/09 00:07:41;;;;;;;10.63;3.13;;;6.80;99.90;;;;;;5007251;28;20048;-74
2022/05/09 00:10:08;;;;;;;14.45;3.03;;;9.10;99.90;;;;;;5016243;28;20049;-74
2022/05/09 00:12:34;;;;;;;12.13;2.92;;;7.60;99.90;;;;;;5045190;28;20155;-74
2022/05/09 00:15:00;;;;;;;20.23;3.80;;;7.50;99.90;;;;;;5039036;28;20120;-74
2022/05/09 00:17:25;;;;;;;13.73;2.95;;;7.30;99.90;;;;;;5026423;28;20128;-75
2022/05/09 00:19:51;;;;;;;13.48;2.83;;;7.70;99.90;;;;;;5045473;28;20036;-75
2022/05/09 00:22:17;;;;;;;10.70;2.97;;;7.60;99.90;;;;;;5035669;28;20560;-74
2022/05/09 00:24:42;;;;;;;11.82;2.83;;;7.60;99.90;;;;;;5038566;28;20420;-74
2022/05/09 00:27:08;;;;;;;13.00;2.85;;;9.00;99.90;;;;;;5042822;28;20298;-75
2022/05/09 00:29:34;;;;;;;11.30;2.92;;;7.60;99.90;;;;;;5024402;28;20045;-75
2022/05/09 00:32:00;;;;;;;10.65;2.70;;;7.60;99.90;;;;;;5041189;28;20424;-75
2022/05/09 00:34:26;;;;;;;12.48;3.50;;;8.40;99.90;;;;;;5041088;28;20123;-75
2022/05/09 00:36:52;;;;;;;8.85;2.80;;;7.60;99.90;;;;;;5037348;28;20080;-74
2022/05/09 00:39:18;;;;;;;9.10;2.95;;;7.50;99.90;;;;;;5038405;28;20057;-74
2022/05/09 00:41:45;;;;;;;14.43;3.38;;;7.50;99.90;;;;;;5020787;28;20080;-74
2022/05/09 00:44:19;;;;;;;8.82;3.13;;;7.50;99.90;;;;;;5016306;28;20028;-75
2022/05/09 00:46:47;;;;;;;14.33;3.47;;;7.50;99.90;;;;;;5018987;28;20049;-75
2022/05/09 00:49:23;;;;;;;11.02;3.30;;;7.50;99.90;;;;;;5007032;28;20139;-75
2022/05/09 00:52:22;;;;;;;15.07;3.38;;;7.50;99.90;;;;;;5035862;28;20048;-75
2022/05/09 00:54:53;;;;;;;14.73;4.18;;;7.40;99.90;;;;;;5025773;28;20075;-75
2022/05/09 00:57:23;;;;;;;11.80;2.85;;;7.40;99.90;;;;;;5042425;28;20060;-75
2022/05/09 00:59:52;;;;;;;12.70;3.35;;;7.40;99.90;;;;;;5022351;28;20041;-75
2022/05/09 01:02:20;;;;;;;11.35;3.20;;;7.40;99.90;;;;;;5008926;28;20041;-74
2022/05/09 01:04:54;;;;;;;21.73;4.40;;;7.50;99.90;;;;;;5016245;28;20036;-75
2022/05/09 01:07:22;;;;;;;19.48;3.70;;;8.50;99.90;;;;;;5043361;28;20037;-74
2022/05/09 01:09:47;;;;;;;10.48;3.78;;;7.40;99.90;;;;;;5003858;28;20119;-75
2022/05/09 01:12:17;;;;;;;11.23;3.17;;;7.30;99.90;;;;;;5023018;28;20045;-74
2022/05/09 01:14:46;;;;;;;11.30;3.30;;;7.30;99.90;;;;;;5046720;28;20049;-75
2022/05/09 01:17:14;;;;;;;10.80;3.78;;;7.30;99.90;;;;;;5042298;28;20053;-74
2022/05/09 01:19:42;;;;;;;13.90;3.45;;;7.30;99.90;;;;;;5029541;28;20047;-75
2022/05/09 01:22:30;;;;;;;11.20;3.03;;;7.20;99.90;;;;;;5017565;28;20049;-74
2022/05/09 01:25:03;;;;;;;7.85;2.95;;;7.20;99.90;;;;;;5029069;28;20052;-74
2022/05/09 01:27:33;;;;;;;11.60;3.33;;;7.20;99.90;;;;;;5006463;28;20132;-75
2022/05/09 01:30:31;;;;;;;11.30;3.17;;;7.20;99.90;;;;;;5025823;28;20048;-75
2022/05/09 01:33:14;;;;;;;11.50;3.00;;;7.20;99.90;;;;;;5023213;28;20040;-74
2022/05/09 01:35:51;;;;;;;9.70;2.60;;;7.20;99.90;;;;;;5041454;28;20049;-74
2022/05/09 01:38:25;;;;;;;8.02;2.22;;;7.00;99.90;;;;;;5038094;28;20040;-74
2022/05/09 01:40:53;;;;;;;9.02;2.40;;;8.10;99.90;;;;;;5026122;28;20121;-73
2022/05/09 01:43:35;;;;;;;9.07;2.97;;;8.40;99.90;;;;;;5004357;28;20036;-74
2022/05/09 01:46:07;;;;;;;10.00;2.78;;;8.50;99.90;;;;;;5030388;28;20053;-74
2022/05/09 01:51:18;;;;;;;9.13;2.42;;;7.00;99.90;;;;;;5044093;28;20119;-74
2022/05/09 01:53:49;;;;;;;10.68;3.05;;;7.10;99.90;;;;;;5008081;28;20672;-74
2022/05/09 01:56:16;;;;;;;9.23;3.10;;;7.10;99.90;;;;;;5038163;28;20165;-74
2022/05/09 01:58:41;;;;;;;10.45;3.30;;;7.10;99.90;;;;;;5022883;28;20073;-74
2022/05/09 02:01:08;;;;;;;12.73;3.22;;;7.10;99.90;;;;;;5023405;28;20273;-74
2022/05/09 02:03:34;;;;;;;7.93;3.35;;;7.10;99.90;;;;;;5009020;28;20123;-74
2022/05/09 02:06:00;;;;;;;12.07;3.63;;;7.10;99.90;;;;;;5007130;28;20044;-74
2022/05/09 02:08:25;;;;;;;9.18;3.22;;;6.60;99.90;;;;;;5039108;28;20420;-74
2022/05/09 02:10:51;;;;;;;10.95;3.28;;;7.00;99.90;;;;;;5023696;28;20051;-74
2022/05/09 02:13:16;;;;;;;12.43;3.55;;;8.00;99.90;;;;;;5012908;28;20487;-74
2022/05/09 02:15:42;;;;;;;14.88;3.38;;;6.80;99.90;;;;;;5024102;28;20037;-74
2022/05/09 02:18:08;;;;;;;9.82;3.15;;;6.70;99.90;;;;;;5007530;28;20491;-74
2022/05/09 02:20:33;;;;;;;11.35;4.70;;;6.70;99.90;;;;;;5042135;28;20044;-74
2022/05/09 02:22:59;;;;;;;12.05;3.60;;;6.60;99.90;;;;;;5039939;28;20052;-74
2022/05/09 02:25:29;;;;;;;7.32;3.50;;;6.50;99.90;;;;;;5035472;28;20060;-76
2022/05/09 02:28:06;;;;;;;10.38;4.50;;;6.40;99.90;;;;;;5005011;28;20043;-74
2022/05/09 02:30:32;;;;;;;12.13;3.78;;;6.40;99.90;;;;;;5023991;28;20044;-75
2022/05/09 02:32:58;;;;;;;13.20;3.95;;;6.20;99.90;;;;;;5008706;28;20121;-74
2022/05/09 02:35:24;;;;;;;12.77;3.80;;;6.20;99.90;;;;;;5010148;28;20562;-74
2022/05/09 02:37:52;;;;;;;12.63;3.38;;;6.30;99.90;;;;;;5005795;28;20045;-74
2022/05/09 02:40:18;;;;;;;14.13;4.53;;;6.30;99.90;;;;;;5021134;28;20057;-74
2022/05/09 02:42:44;;;;;;;13.55;3.50;;;6.30;99.90;;;;;;5024244;28;20136;-74
2022/05/09 02:45:10;;;;;;;15.15;3.47;;;6.30;99.90;;;;;;5025102;28;20115;-74
2022/05/09 02:47:36;;;;;;;6.95;3.90;;;6.40;99.90;;;;;;5037765;28;20115;-74
2022/05/09 02:50:02;;;;;;;8.85;3.28;;;6.30;99.90;;;;;;5043190;28;20048;-74
2022/05/09 02:52:27;;;;;;;6.00;3.17;;;6.30;99.90;;;;;;5026589;28;20069;-74
2022/05/09 02:54:53;;;;;;;13.05;3.80;;;6.30;99.90;;;;;;5027195;28;20067;-74
2022/05/09 02:57:19;;;;;;;10.43;3.40;;;6.20;99.90;;;;;;5024115;28;20451;-74
2022/05/09 02:59:44;;;;;;;11.45;3.30;;;7.90;99.90;;;;;;5019668;28;20056;-74
2022/05/09 03:02:10;;;;;;;8.98;3.13;;;6.10;99.90;;;;;;5023938;28;20052;-74
2022/05/09 03:04:39;;;;;;;8.68;3.28;;;6.10;99.90;;;;;;5010908;28;20476;-74
2022/05/09 03:07:14;;;;;;;7.93;3.17;;;6.20;99.90;;;;;;5044887;28;20044;-74
2022/05/09 03:09:42;;;;;;;9.48;3.35;;;8.10;99.90;;;;;;5040863;28;20037;-74
2022/05/09 03:12:09;;;;;;;6.30;2.95;;;6.40;99.90;;;;;;5046619;28;20056;-74
2022/05/09 03:14:36;;;;;;;9.48;3.40;;;6.20;99.90;;;;;;5018068;28;20076;-73
2022/05/09 03:17:03;;;;;;;8.85;3.60;;;6.20;99.90;;;;;;5021421;28;20044;-74
2022/05/09 03:19:30;;;;;;;10.50;3.55;;;6.20;99.90;;;;;;5026650;28;20513;-75
2022/05/09 03:21:56;;;;;;;10.75;3.60;;;6.10;99.90;;;;;;5019590;28;20041;-74
2022/05/09 03:24:22;;;;;;;11.02;3.60;;;6.00;99.90;;;;;;5033543;28;20062;-74
2022/05/09 03:26:49;;;;;;;11.10;3.67;;;6.10;99.90;;;;;;5021115;28;20052;-75
2022/05/09 03:29:15;;;;;;;8.48;3.80;;;6.10;99.90;;;;;;5044884;28;20401;-74
2022/05/09 03:31:41;;;;;;;22.98;5.30;;;6.40;99.90;;;;;;5028936;28;20515;-73
2022/05/09 03:34:07;;;;;;;6.38;3.28;;;6.10;99.90;;;;;;5044929;28;20128;-74
2022/05/09 03:36:33;;;;;;;17.92;3.70;;;6.50;99.90;;;;;;5026953;28;20502;-74
2022/05/09 03:38:59;;;;;;;9.85;3.15;;;6.10;99.90;;;;;;5046911;28;20519;-74
2022/05/09 03:41:25;;;;;;;9.90;3.38;;;7.60;99.90;;;;;;5045065;28;20492;-74
2022/05/09 03:43:51;;;;;;;12.50;3.83;;;6.10;99.90;;;;;;5022894;28;20168;-74
2022/05/09 03:46:17;;;;;;;11.02;4.32;;;6.10;99.90;;;;;;5044476;28;20048;-75
2022/05/09 03:48:43;;;;;;;15.73;5.15;;;6.10;99.90;;;;;;5022723;28;20032;-74
2022/05/09 03:51:09;;;;;;;13.45;3.70;;;6.10;99.90;;;;;;5028431;28;20045;-74
2022/05/09 03:53:35;;;;;;;12.20;3.85;;;6.10;99.90;;;;;;5023004;28;20037;-74
2022/05/09 03:56:01;;;;;;;11.73;4.25;;;6.10;99.90;;;;;;5028382;28;20083;-74
2022/05/09 03:58:27;;;;;;;10.75;3.22;;;6.10;99.90;;;;;;5012490;28;20118;-75
2022/05/09 04:00:52;;;;;;;18.58;3.85;;;6.10;99.90;;;;;;5028217;28;20171;-74
2022/05/09 04:03:19;;;;;;;9.48;2.60;;;6.10;99.90;;;;;;5042425;28;20727;-73
2022/05/09 04:05:45;;;;;;;8.70;3.38;;;6.10;99.90;;;;;;5035534;28;20373;-74
2022/05/09 04:08:16;;;;;;;12.50;3.45;;;6.10;99.90;;;;;;5008221;28;20091;-74
2022/05/09 04:10:43;;;;;;;9.82;3.25;;;5.30;99.90;;;;;;5040813;28;20052;-73
2022/05/09 04:13:09;;;;;;;8.18;3.22;;;6.20;99.90;;;;;;5026572;28;20048;-73
2022/05/09 04:18:21;;;;;;;11.48;3.28;;;6.30;99.90;;;;;;5040566;28;20052;-74
2022/05/09 04:20:49;;;;;;;11.20;3.95;;;6.30;99.90;;;;;;5021069;28;20405;-74
2022/05/09 04:23:15;;;;;;;11.15;4.30;;;6.30;99.90;;;;;;5020152;28;20048;-74
2022/05/09 04:25:41;;;;;;;8.95;3.55;;;6.40;99.90;;;;;;5021942;28;20052;-73
2022/05/09 04:28:08;;;;;;;7.18;2.88;;;6.10;99.90;;;;;;5025767;28;20110;-74
2022/05/09 04:30:35;;;;;;;11.30;3.70;;;6.30;99.90;;;;;;5036635;28;20060;-75
2022/05/09 04:33:01;;;;;;;16.73;4.63;;;6.20;99.90;;;;;;5008787;28;20041;-73
2022/05/09 04:35:28;;;;;;;11.07;3.17;;;6.20;99.90;;;;;;5018478;28;20045;-74
2022/05/09 04:37:54;;;;;;;9.05;3.42;;;6.20;99.90;;;;;;5006136;28;20037;-74
2022/05/09 04:40:23;;;;;;;9.98;3.17;;;6.10;99.90;;;;;;5040623;28;20386;-74
2022/05/09 04:42:49;;;;;;;8.65;3.25;;;6.20;99.90;;;;;;5023011;28;20147;-73
2022/05/09 04:45:16;;;;;;;9.32;2.92;;;6.10;99.90;;;;;;5041109;28;20048;-73
2022/05/09 04:47:43;;;;;;;9.32;3.97;;;6.00;99.90;;;;;;4675092;28;9999852;-74
2022/05/09 04:50:11;;;;;;;15.30;4.40;;;5.60;99.90;;;;;;5041100;28;20042;-73
2022/05/09 04:52:37;;;;;;;10.20;3.80;;;5.90;99.90;;;;;;5021228;28;20041;-77
2022/05/09 04:55:04;;;;;;;14.63;4.60;;;5.90;99.90;;;;;;5006838;28;20049;-75
2022/05/09 04:57:30;;;;;;;17.02;4.47;;;5.90;99.90;;;;;;5044164;28;20044;-75
2022/05/09 04:59:57;;;;;;;14.80;5.70;;;5.80;99.90;;;;;;5043750;28;20044;-74
2022/05/09 05:02:22;;;;;;;19.55;6.00;;;6.30;99.90;;;;;;5041196;28;20408;-74
2022/05/09 05:04:48;;;;;;;19.48;6.22;;;5.80;99.90;;;;;;5049419;28;20037;-75
2022/05/09 05:07:13;;;;;;;19.40;6.80;;;7.20;99.90;;;;;;5029427;28;20571;-74
2022/05/09 05:09:39;;;;;;;16.77;6.50;;;5.90;99.90;;;;;;5030122;28;20045;-74
2022/05/09 05:12:05;;;;;;;18.40;6.68;;;6.00;99.90;;;;;;5026621;28;20412;-74
2022/05/09 05:14:31;;;;;;;18.02;6.65;;;6.10;99.90;;;;;;5044453;28;20044;-74
2022/05/09 05:16:59;;;;;;;13.52;6.15;;;6.10;99.90;;;;;;5006148;28;20040;-75
2022/05/09 05:19:35;;;;;;;10.95;6.20;;;6.20;99.90;;;;;;5041451;28;20542;-76
2022/05/09 05:22:03;;;;;;;29.48;8.25;;;6.20;99.90;;;;;;5024354;28;20098;-71
2022/05/09 05:24:33;;;;;;;31.23;7.72;;;6.30;99.90;;;;;;5045038;28;20037;-74
2022/05/09 05:27:00;;;;;;;19.42;7.93;;;6.40;99.90;;;;;;5042748;28;20518;-72
2022/05/09 05:29:26;;;;;;;23.80;8.07;;;6.50;99.90;;;;;;5026890;28;20091;-72
2022/05/09 05:31:51;;;;;;;31.33;7.15;;;6.50;99.90;;;;;;5014470;28;20048;-75
2022/05/09 05:34:18;;;;;;;21.55;6.50;;;7.10;99.90;;;;;;5032089;28;20165;-71
2022/05/09 05:36:43;;;;;;;21.40;6.68;;;6.70;99.90;;;;;;5043731;28;20051;-73
2022/05/09 05:39:13;;;;;;;21.33;7.05;;;6.70;99.90;;;;;;5044817;28;20384;-74
2022/05/09 05:41:39;;;;;;;22.02;6.45;;;6.80;99.90;;;;;;5020279;28;20128;-75
2022/05/09 05:44:08;;;;;;;15.00;6.38;;;6.90;99.90;;;;;;5001099;28;20180;-74
2022/05/09 05:46:34;;;;;;;22.88;6.95;;;7.00;99.90;;;;;;5029834;28;20045;-76
2022/05/09 05:49:00;;;;;;;18.95;6.95;;;7.00;99.90;;;;;;5023157;28;20116;-73
2022/05/09 05:51:26;;;;;;;22.67;7.43;;;7.10;99.90;;;;;;5022408;28;20591;-73
2022/05/09 05:53:53;;;;;;;25.38;7.43;;;7.20;99.90;;;;;;5041757;28;20036;-73
2022/05/09 05:56:19;;;;;;;22.98;7.90;;;7.20;99.90;;;;;;5031412;28;20049;-73
2022/05/09 05:58:44;;;;;;;15.38;7.10;;;7.30;99.90;;;;;;5004437;28;20451;-74
2022/05/09 06:01:10;;;;;;;25.35;8.45;;;7.30;99.90;;;;;;5038598;28;20048;-73
2022/05/09 06:03:36;;;;;;;17.38;7.43;;;7.40;99.90;;;;;;5045615;28;20040;-74
2022/05/09 06:06:02;;;;;;;22.27;7.35;;;7.50;99.90;;;;;;5002506;28;20127;-74
2022/05/09 06:08:27;;;;;;;17.52;7.50;;;7.50;99.90;;;;;;5021801;28;20045;-74
2022/05/09 06:10:53;;;;;;;20.38;6.97;;;7.60;99.90;;;;;;5038399;28;20633;-74
2022/05/09 06:13:19;;;;;;;26.20;7.72;;;7.60;99.90;;;;;;5024659;28;20049;-74
2022/05/09 06:15:45;;;;;;;20.25;7.25;;;7.70;99.90;;;;;;5043971;28;20029;-74
2022/05/09 06:18:12;;;;;;;22.02;7.50;;;7.80;99.90;;;;;;5019873;28;20111;-75
2022/05/09 06:20:40;;;;;;;17.50;7.35;;;7.80;99.90;;;;;;5006565;28;20400;-74
2022/05/09 06:23:07;;;;;;;17.63;6.68;;;7.90;99.90;;;;;;5023153;28;20076;-73
2022/05/09 06:25:34;;;;;;;25.38;7.15;;;8.00;99.90;;;;;;5023226;28;20049;-74
2022/05/09 06:28:00;;;;;;;23.13;6.28;;;8.00;99.90;;;;;;5021219;28;20049;-74
2022/05/09 06:30:27;;;;;;;18.65;7.18;;;8.10;99.90;;;;;;5006823;28;20401;-74
2022/05/09 06:32:54;;;;;;;25.35;6.90;;;8.20;99.90;;;;;;5023609;28;20496;-73
2022/05/09 06:35:23;;;;;;;23.70;6.65;;;8.30;99.90;;;;;;5041595;28;20041;-73
2022/05/09 06:37:51;;;;;;;16.85;5.90;;;8.40;99.90;;;;;;5037984;28;20045;-73
2022/05/09 06:40:17;;;;;;;19.70;7.18;;;8.50;99.90;;;;;;5040910;28;20067;-74
2022/05/09 06:42:44;;;;;;;24.33;7.03;;;8.60;99.90;;;;;;5021850;28;20049;-74
2022/05/09 06:45:10;;;;;;;27.55;8.73;;;8.70;99.90;;;;;;5019575;28;20376;-74
2022/05/09 06:47:44;;;;;;;21.35;7.32;;;8.80;99.90;;;;;;5028456;28;20397;-74
2022/05/09 06:50:09;;;;;;;21.15;6.72;;;8.90;99.90;;;;;;5020148;28;20136;-74
2022/05/09 06:52:36;;;;;;;20.10;6.35;;;9.00;99.90;;;;;;5027863;28;20043;-74
2022/05/09 06:55:02;;;;;;;24.55;6.65;;;9.10;99.90;;;;;;5046958;28;20045;-74
2022/05/09 06:57:28;;;;;;;31.98;7.68;;;9.10;99.90;;;;;;5023267;28;20056;-74
2022/05/09 06:59:53;;;;;;;21.33;7.13;;;9.30;99.90;;;;;;4998264;28;20090;-74
2022/05/09 07:02:19;;;;;;;23.33;6.85;;;10.30;99.90;;;;;;5042665;28;20048;-74
2022/05/09 07:04:44;;;;;;;18.98;5.90;;;9.40;99.90;;;;;;5021755;28;20497;-74
2022/05/09 07:07:10;;;;;;;19.30;6.85;;;10.50;99.90;;;;;;5005284;28;20484;-74
2022/05/09 07:09:36;;;;;;;24.33;6.15;;;9.60;99.90;;;;;;5005446;28;20079;-74
2022/05/09 07:12:02;;;;;;;19.15;6.10;;;9.70;99.90;;;;;;5021571;28;20068;-74
2022/05/09 07:14:27;;;;;;;13.07;4.93;;;9.90;99.90;;;;;;5041244;28;20427;-75
2022/05/09 07:16:53;;;;;;;22.08;5.10;;;10.00;99.90;;;;;;5037734;28;20045;-76
2022/05/09 07:19:18;;;;;;;16.05;5.40;;;10.10;99.90;;;;;;5002626;28;20083;-76
2022/05/09 07:21:44;;;;;;;17.60;6.47;;;10.20;99.90;;;;;;5042380;28;20405;-75
2022/05/09 07:24:09;;;;;;;15.68;5.18;;;10.30;99.90;;;;;;5019112;28;20037;-76
2022/05/09 07:26:36;;;;;;;15.88;4.55;;;10.50;99.90;;;;;;5040278;28;20114;-76
2022/05/09 07:29:02;;;;;;;16.77;4.78;;;10.60;99.90;;;;;;5040460;28;20464;-76
2022/05/09 07:31:29;;;;;;;14.02;4.43;;;10.70;99.90;;;;;;5031273;28;20427;-75
2022/05/09 07:33:54;;;;;;;14.70;4.78;;;10.90;99.90;;;;;;5002861;28;20033;-75
2022/05/09 07:36:21;;;;;;;17.65;4.10;;;11.00;99.90;;;;;;5036901;28;20052;-75
2022/05/09 07:38:46;;;;;;;21.38;5.18;;;12.00;99.90;;;;;;5042386;28;20041;-75
2022/05/09 07:41:12;;;;;;;13.93;4.85;;;11.10;99.90;;;;;;5017191;28;20052;-75
2022/05/09 07:43:38;;;;;;;13.43;3.83;;;11.10;99.90;;;;;;5019609;28;20037;-75
2022/05/09 07:46:03;;;;;;;11.38;4.50;;;11.30;99.90;;;;;;5022550;28;20041;-75
2022/05/09 07:48:29;;;;;;;13.55;4.45;;;12.10;99.90;;;;;;5046825;28;20163;-75
2022/05/09 07:50:57;;;;;;;11.00;3.78;;;11.30;99.90;;;;;;5019836;28;20053;-74
2022/05/09 07:53:29;;;;;;;13.98;3.67;;;12.10;99.90;;;;;;5018575;28;20035;-75
2022/05/09 07:55:56;;;;;;;14.45;3.80;;;12.60;99.90;;;;;;5020431;28;20056;-74
2022/05/09 07:58:22;;;;;;;21.60;5.47;;;11.70;99.90;;;;;;5040110;28;20361;-74
2022/05/09 08:00:48;;;;;;;16.25;4.07;;;11.80;99.90;;;;;;5039002;28;20492;-74
2022/05/09 08:03:21;;;;;;;12.65;3.83;;;11.80;99.90;;;;;;5036122;28;20038;-75
2022/05/09 08:05:52;;;;;;;16.00;4.47;;;11.90;99.90;;;;;;5042819;28;20048;-75
2022/05/09 08:08:18;;;;;;;10.30;3.20;;;12.00;99.90;;;;;;5038549;28;20037;-75
2022/05/09 08:10:44;;;;;;;12.82;3.60;;;12.00;99.90;;;;;;5021688;28;20106;-75
2022/05/09 08:13:12;;;;;;;14.52;4.03;;;12.20;99.90;;;;;;5022234;28;20045;-76
2022/05/09 08:15:38;;;;;;;7.32;3.42;;;13.20;99.90;;;;;;5039856;28;20055;-75
2022/05/09 08:18:05;;;;;;;12.93;3.28;;;12.30;99.90;;;;;;5017706;28;20050;-75
2022/05/09 08:20:33;;;;;;;15.13;3.00;;;12.30;99.90;;;;;;5019722;28;20041;-75
2022/05/09 08:23:08;;;;;;;14.90;3.25;;;12.40;99.90;;;;;;5024046;28;20053;-75
2022/05/09 08:25:34;;;;;;;13.35;2.88;;;12.60;99.90;;;;;;5044433;28;20502;-75
2022/05/09 08:28:01;;;;;;;16.73;4.28;;;12.70;99.90;;;;;;5023185;28;20500;-75
2022/05/09 08:30:32;;;;;;;13.48;4.28;;;12.90;99.90;;;;;;5040304;28;20041;-74
2022/05/09 08:33:00;;;;;;;15.38;4.20;;;12.90;99.90;;;;;;5023490;28;20056;-75
2022/05/09 08:35:26;;;;;;;12.77;3.67;;;13.00;99.90;;;;;;5043654;28;20037;-74
2022/05/09 08:37:51;;;;;;;18.48;3.50;;;13.20;99.90;;;;;;5023998;28;20052;-74
2022/05/09 08:40:21;;;;;;;13.95;3.47;;;13.30;99.90;;;;;;5025546;28;20048;-75
2022/05/09 08:43:17;;;;;;;12.80;3.72;;;13.40;99.90;;;;;;5042675;28;20152;-76
2022/05/09 08:45:50;;;;;;;11.00;3.78;;;13.50;99.90;;;;;;5030672;28;20053;-77
2022/05/09 08:48:32;;;;;;;12.15;2.95;;;13.60;99.90;;;;;;5040976;28;20452;-77
2022/05/09 08:51:21;;;;;;;14.82;3.22;;;13.70;99.90;;;;;;5022947;28;20045;-76
2022/05/09 08:53:55;;;;;;;25.73;7.55;;;13.80;99.90;;;;;;5026130;28;20396;-75
2022/05/09 08:56:21;;;;;;;10.13;2.53;;;13.80;99.90;;;;;;5039790;28;20409;-75
2022/05/09 08:59:03;;;;;;;11.55;3.25;;;14.00;99.90;;;;;;5012279;28;20040;-75
2022/05/09 09:01:48;;;;;;;16.73;3.38;;;14.40;99.90;;;;;;5022482;28;20115;-75
2022/05/09 09:04:31;;;;;;;12.40;2.60;;;14.20;99.90;;;;;;5042444;28;20033;-75
2022/05/09 09:07:12;;;;;;;8.50;2.55;;;14.40;99.90;;;;;;5007407;28;20044;-75
2022/05/09 09:10:17;;;;;;;8.48;2.13;;;14.50;99.90;;;;;;5050773;28;20094;-75
2022/05/09 09:12:52;;;;;;;;;;;14.80;99.90;;;;;;5039556;28;20057;-75
2022/05/09 09:15:34;;;;;;;10.55;2.45;;;15.10;99.90;;;;;;5042031;28;19921;-75
2022/05/09 09:18:14;;;;;;;6.28;2.15;;;15.20;99.90;;;;;;5041055;28;20041;-75
2022/05/09 09:21:09;;;;;;;8.93;2.05;;;15.20;99.90;;;;;;5039995;28;20084;-75
2022/05/09 09:23:44;;;;;;;6.43;2.38;;;15.20;99.90;;;;;;5025775;28;20056;-76
2022/05/09 09:26:34;;;;;;;7.50;2.28;;;15.30;99.90;;;;;;5020991;28;20103;-75
2022/05/09 09:29:41;;;;;;;10.05;2.30;;;15.40;99.90;;;;;;5028682;28;20041;-77
2022/05/09 09:32:10;;;;;;;8.38;2.38;;;15.20;99.90;;;;;;5009757;28;20408;-76
2022/05/09 09:35:03;;;;;;;10.43;2.08;;;15.70;99.80;;;;;;5042845;28;20033;-75
2022/05/09 09:37:35;;;;;;;14.70;2.20;;;15.70;99.30;;;;;;5039254;28;20121;-76
2022/05/09 09:40:00;;;;;;;7.18;2.22;;;15.70;99.00;;;;;;5021592;28;20096;-76
2022/05/09 09:42:26;;;;;;;10.77;2.47;;;15.70;98.60;;;;;;5042661;28;20041;-76
2022/05/09 09:44:54;;;;;;;11.15;3.05;;;15.80;98.70;;;;;;5019800;28;20045;-75
2022/05/09 09:47:20;;;;;;;11.65;2.88;;;15.90;98.70;;;;;;5023949;28;20041;-77
2022/05/09 09:50:09;;;;;;;12.57;2.28;;;16.00;97.90;;;;;;5025218;28;20518;-78
2022/05/09 09:52:56;;;;;;;6.93;2.20;;;16.20;97.20;;;;;;5042706;28;20052;-77
2022/05/09 09:55:37;;;;;;;11.68;2.58;;;16.30;95.40;;;;;;5020606;28;20042;-78
2022/05/09 09:58:27;;;;;;;11.43;2.78;;;16.50;96.10;;;;;;5022147;28;20068;-77
2022/05/09 10:01:11;;;;;;;7.13;1.80;;;16.50;94.20;;;;;;5042791;28;20102;-77
2022/05/09 10:03:43;;;;;;;9.60;2.38;;;16.60;95.50;;;;;;5039521;28;20046;-76
2022/05/09 10:06:21;;;;;;;10.98;2.13;;;16.70;95.10;;;;;;5022405;28;20216;-77
2022/05/09 10:08:56;;;;;;;7.38;2.08;;;16.80;94.30;;;;;;5007347;28;20586;-77
2022/05/09 10:11:30;;;;;;;11.82;2.33;;;17.00;94.20;;;;;;5045836;28;20049;-77
2022/05/09 10:14:02;;;;;;;8.35;2.20;;;17.00;93.70;;;;;;5020532;28;20093;-75
2022/05/09 10:16:33;;;;;;;11.48;3.10;;;17.10;92.90;;;;;;5041257;28;20516;-77
2022/05/09 10:19:02;;;;;;;12.10;5.38;;;17.10;91.90;;;;;;5023009;28;20052;-75
2022/05/09 10:25:00;;;;;;;11.40;2.05;;;17.20;91.00;;;;;;5041990;28;20064;-77
2022/05/09 10:27:29;;;;;;;11.50;2.63;;;17.40;88.40;;;;;;4970637;28;20051;-77
2022/05/09 10:30:15;;;;;;;9.07;2.90;;;17.40;87.90;;;;;;4987025;28;20122;-74
2022/05/09 10:32:59;;;;;;;7.93;2.38;;;17.40;88.00;;;;;;5010171;28;20088;-77
2022/05/09 10:35:36;;;;;;;5.30;2.20;;;17.50;88.00;;;;;;5023523;28;20068;-75
2022/05/09 10:38:07;;;;;;;8.50;2.03;;;17.60;84.50;;;;;;5023318;28;20072;-75
2022/05/09 10:40:47;;;;;;;10.40;2.67;;;17.70;86.10;;;;;;5020525;28;20041;-74
2022/05/09 10:43:26;;;;;;;9.32;2.40;;;17.90;87.60;;;;;;5022308;28;20045;-74
2022/05/09 10:45:53;;;;;;;10.38;2.33;;;18.00;86.50;;;;;;5037749;28;20524;-73
2022/05/09 10:48:41;;;;;;;9.45;1.80;;;18.50;86.20;;;;;;5022971;28;20052;-73
2022/05/09 10:51:14;;;;;;;8.02;2.40;;;18.40;85.70;;;;;;5039348;28;20064;-75
2022/05/09 10:53:55;;;;;;;7.05;1.70;;;18.50;81.90;;;;;;5020502;28;20049;-75
2022/05/09 10:56:49;;;;;;;14.40;2.40;;;18.60;83.20;;;;;;5037823;28;20083;-76
2022/05/09 10:59:22;;;;;;;14.35;1.95;;;18.70;80.20;;;;;;5019051;28;20528;-74
2022/05/09 11:02:03;;;;;;;9.25;2.00;;;18.80;81.00;;;;;;5039510;28;20060;-75
2022/05/09 11:04:30;;;;;;;7.95;1.70;;;19.00;80.90;;;;;;5040648;28;20053;-75
2022/05/09 11:07:18;;;;;;;8.73;2.30;;;19.70;79.00;;;;;;5040219;28;20492;-74
2022/05/09 11:10:09;;;;;;;6.85;2.00;;;19.20;76.80;;;;;;5019418;28;20650;-74
2022/05/09 11:12:52;;;;;;;7.50;2.20;;;19.20;76.00;;;;;;5019062;28;20050;-74
2022/05/09 11:15:27;;;;;;;7.38;2.42;;;19.30;77.80;;;;;;5022011;28;20053;-74
2022/05/09 11:18:23;;;;;;;5.88;1.65;;;19.50;76.50;;;;;;5022143;28;20373;-75
2022/05/09 11:20:51;;;;;;;7.18;1.75;;;19.60;76.70;;;;;;5019858;28;20381;-75
2022/05/09 11:23:22;;;;;;;9.13;2.15;;;19.70;75.50;;;;;;5021065;28;20041;-77
2022/05/09 11:26:07;;;;;;;10.45;1.63;;;19.90;75.60;;;;;;5023571;28;20485;-75
2022/05/09 11:28:51;;;;;;;8.25;1.83;;;20.10;72.80;;;;;;5023072;28;20044;-76
2022/05/09 11:31:47;;;;;;;8.85;1.77;;;20.10;72.90;;;;;;5021353;28;20037;-75
2022/05/09 11:34:22;;;;;;;8.02;1.83;;;20.20;72.40;;;;;;5026162;28;20040;-75
2022/05/09 11:36:59;;;;;;;13.65;6.05;;;20.30;72.10;;;;;;5027386;28;20091;-75
2022/05/09 11:39:36;;;;;;;11.70;3.30;;;20.40;72.80;;;;;;5028506;28;20045;-75
2022/05/09 11:45:22;;;;;;;11.02;2.28;;;20.80;73.40;;;;;;5028105;28;20041;-75
2022/05/09 11:48:08;;;;;;;7.60;2.25;;;21.10;72.00;;;;;;5023706;28;20055;-76
2022/05/09 11:50:48;;;;;;;4.50;1.38;;;21.30;71.90;;;;;;5022842;28;20737;-74
2022/05/09 11:53:18;;;;;;;7.93;2.88;;;21.30;67.80;;;;;;5004454;28;20499;-78
2022/05/09 11:55:44;;;;;;;5.50;1.77;;;21.90;69.40;;;;;;5022396;28;20045;-75
2022/05/09 11:58:10;;;;;;;10.07;2.45;;;21.90;68.80;;;;;;5040081;28;20052;-77
2022/05/09 12:00:36;;;;;;;4.75;1.48;;;22.00;66.50;;;;;;5022289;28;20616;-78
2022/05/09 12:03:07;;;;;;;4.70;1.25;;;21.80;63.80;;;;;;5039713;28;20044;-75
2022/05/09 12:05:33;;;;;;;9.68;1.52;;;21.70;63.90;;;;;;5005917;28;20036;-75
2022/05/09 12:08:15;;;;;;;10.48;1.65;;;21.80;65.90;;;;;;5020955;28;20098;-75
2022/05/09 12:10:43;;;;;;;5.00;1.25;;;21.90;65.70;;;;;;5036322;28;20041;-75
2022/05/09 12:13:25;;;;;;;9.40;2.22;;;22.00;64.00;;;;;;5043155;28;20139;-74
2022/05/09 12:16:00;;;;;;;10.75;2.42;;;22.00;63.30;;;;;;5035920;28;20045;-75
2022/05/09 12:18:32;;;;;;;10.25;2.00;;;22.20;64.40;;;;;;5020697;28;20041;-75
2022/05/09 12:21:09;;;;;;;9.10;2.33;;;22.30;61.00;;;;;;5021815;28;20029;-78
2022/05/09 12:23:41;;;;;;;5.45;1.55;;;22.30;62.80;;;;;;5018362;28;20408;-75
2022/05/09 12:26:09;;;;;;;6.43;1.63;;;22.40;63.70;;;;;;5038881;28;20091;-75
2022/05/09 12:28:39;;;;;;;12.27;1.88;;;22.60;64.10;;;;;;5019077;28;20489;-77
2022/05/09 12:31:06;;;;;;;6.95;1.40;;;22.60;61.50;;;;;;5018208;28;20042;-75
2022/05/09 12:33:46;;;;;;;7.47;1.77;;;23.10;62.10;;;;;;5021332;28;20120;-75
2022/05/09 12:36:29;;;;;;;3.35;1.27;;;22.90;62.50;;;;;;5020082;28;20095;-75
2022/05/09 12:39:01;;;;;;;6.05;1.20;;;23.20;61.70;;;;;;5032449;28;20400;-75
2022/05/09 12:41:38;;;;;;;7.55;1.50;;;23.00;59.30;;;;;;5020125;28;20500;-76
2022/05/09 12:44:15;;;;;;;5.45;1.42;;;22.90;59.60;;;;;;5035318;28;20088;-75
2022/05/09 12:46:53;;;;;;;8.38;1.77;;;23.10;59.90;;;;;;5021792;28;20076;-75
2022/05/09 12:49:24;;;;;;;8.20;1.38;;;23.00;58.50;;;;;;5037486;28;20036;-75
2022/05/09 12:51:56;;;;;;;2.65;1.05;;;23.10;58.40;;;;;;5035552;28;20042;-77
2022/05/09 12:54:24;;;;;;;3.83;1.60;;;23.00;58.10;;;;;;5036659;28;20044;-75
2022/05/09 12:56:59;;;;;;;5.22;1.50;;;23.10;58.50;;;;;;5020979;28;20128;-78
2022/05/09 12:59:27;;;;;;;7.07;1.92;;;23.00;58.50;;;;;;5005734;28;20052;-78
2022/05/09 13:02:01;;;;;;;11.40;1.80;;;23.40;59.70;;;;;;5019448;28;20551;-75
2022/05/09 13:04:30;;;;;;;4.80;1.20;;;23.60;59.40;;;;;;5040218;28;20500;-75
2022/05/09 13:07:05;;;;;;;7.13;1.60;;;23.30;58.90;;;;;;5036952;28;20073;-75
2022/05/09 13:09:36;;;;;;;7.00;1.50;;;23.40;59.50;;;;;;5049442;28;20079;-74
2022/05/09 13:12:08;;;;;;;3.50;1.15;;;23.90;60.30;;;;;;5043236;28;20057;-74
2022/05/09 13:14:39;;;;;;;4.03;1.30;;;23.50;57.70;;;;;;5023596;28;20126;-75